Terminal Aerodrome Forecast
Issued by NWS Dallas/Fort Worth, TX

Home | Current Version | Previous Version | Text Only | Print | Product List | Glossary On
Versions: 1 2 3 4 5 6 7 8 9 10 11 12 13 14 15 16 17 18 19 20 21 22 23 24 25 26 27 28 29 30 31
000
FTUS44 KFWD 230302 AAA
TAFACT
TAF AMD
KACT 230302Z 2303/2324 09005KT P6SM FEW025 OVC250
     FM230600 15005KT P6SM BKN018 BKN100
     FM231000 15005KT P6SM VCTS BKN020CB BKN100
     FM231300 15008KT P6SM BKN018 BKN060
     FM231400 35009KT P6SM BKN022
     FM232000 35015KT P6SM VCSH BKN060 BKN100=

USA.gov is the U.S. government's official web portal to all federal, state and local government web resources and services.